createdAt,value
2023-02-28T00:01:14.500Z,45.50
2023-02-28T00:03:42.916Z,52.90
2023-02-28T00:06:11.098Z,90.90
2023-02-28T00:08:39.832Z,111.90
2023-02-28T00:11:10.086Z,88.50
2023-02-28T00:13:40.625Z,78.50
2023-02-28T00:16:10.867Z,44.80
2023-02-28T00:18:38.892Z,55.60
2023-02-28T00:21:07.941Z,60.90
2023-02-28T00:23:36.598Z,46.40
2023-02-28T00:26:05.136Z,64.00
2023-02-28T00:28:33.682Z,60.70
2023-02-28T00:31:01.808Z,66.90
2023-02-28T00:33:30.641Z,51.90
2023-02-28T00:36:08.465Z,61.80
2023-02-28T00:38:38.212Z,42.90
2023-02-28T00:41:07.504Z,44.10
2023-02-28T00:43:37.365Z,48.70
2023-02-28T00:46:06.946Z,51.70
2023-02-28T00:48:35.293Z,42.60
2023-02-28T00:51:04.225Z,44.40
2023-02-28T00:53:33.254Z,47.50
2023-02-28T00:56:01.326Z,43.50
2023-02-28T00:58:29.641Z,56.20
2023-02-28T01:00:57.877Z,46.00
2023-02-28T01:03:25.840Z,45.70
2023-02-28T01:05:53.919Z,46.40
2023-02-28T01:08:22.014Z,46.40
2023-02-28T01:10:50.304Z,40.40
2023-02-28T01:13:18.741Z,41.00
2023-02-28T01:15:50.127Z,39.40
2023-02-28T01:18:18.157Z,39.40
2023-02-28T01:20:46.638Z,49.20
2023-02-28T01:23:14.696Z,38.00
2023-02-28T01:25:42.875Z,39.10
2023-02-28T01:28:10.894Z,43.90
2023-02-28T01:30:38.918Z,37.60
2023-02-28T01:33:08.034Z,40.70
2023-02-28T01:35:36.849Z,39.50
2023-02-28T01:38:20.531Z,44.80
2023-02-28T01:40:49.380Z,41.40
2023-02-28T01:43:24.765Z,40.50
2023-02-28T01:45:54.489Z,39.70
2023-02-28T01:48:27.092Z,44.00
2023-02-28T01:51:00.264Z,35.70
2023-02-28T01:53:33.114Z,42.50
2023-02-28T01:56:04.640Z,43.90
2023-02-28T01:58:33.069Z,49.70
2023-02-28T02:01:03.298Z,36.50
2023-02-28T02:03:31.985Z,40.30
2023-02-28T02:06:00.879Z,32.00
2023-02-28T02:08:30.677Z,40.50
2023-02-28T02:11:00.891Z,41.10
2023-02-28T02:13:43.090Z,41.20
2023-02-28T02:16:28.360Z,45.10
2023-02-28T02:19:03.555Z,46.70
2023-02-28T02:22:03.709Z,42.30
2023-02-28T02:25:00.177Z,38.80
2023-02-28T02:27:46.069Z,42.40
2023-02-28T02:30:33.789Z,45.20
2023-02-28T02:33:16.636Z,37.00
2023-02-28T02:35:52.092Z,38.20
2023-02-28T02:38:27.416Z,49.10
2023-02-28T02:41:04.060Z,35.70
2023-02-28T02:43:39.758Z,39.50
2023-02-28T02:46:15.600Z,41.60
2023-02-28T02:48:47.767Z,35.30
2023-02-28T02:51:19.762Z,37.80
2023-02-28T02:53:51.397Z,36.50
2023-02-28T02:56:23.637Z,35.70
2023-02-28T02:58:54.392Z,36.20
2023-02-28T03:01:28.428Z,35.60
2023-02-28T03:04:00.264Z,42.50
2023-02-28T03:06:28.500Z,41.30
2023-02-28T03:08:56.486Z,38.10
2023-02-28T03:11:24.972Z,40.40
2023-02-28T03:14:16.270Z,42.00
2023-02-28T03:17:12.719Z,38.20
2023-02-28T03:19:52.609Z,38.20
2023-02-28T03:22:40.428Z,40.60
2023-02-28T03:25:15.054Z,39.60
2023-02-28T03:27:55.943Z,32.80
2023-02-28T03:30:30.380Z,37.00
2023-02-28T03:33:05.011Z,39.80
2023-02-28T03:35:37.880Z,41.50
2023-02-28T03:38:14.378Z,41.80
2023-02-28T03:40:47.227Z,43.50
2023-02-28T03:43:21.998Z,44.20
2023-02-28T03:45:53.365Z,36.20
2023-02-28T03:48:26.621Z,38.40
2023-02-28T03:50:58.867Z,48.00
2023-02-28T03:53:31.666Z,44.10
2023-02-28T03:56:04.764Z,37.10
2023-02-28T03:58:38.568Z,35.80
2023-02-28T04:01:13.844Z,40.40
2023-02-28T04:06:17.160Z,47.90
2023-02-28T04:08:45.166Z,44.00
2023-02-28T04:11:21.745Z,34.30
2023-02-28T04:13:49.737Z,39.70
2023-02-28T04:16:33.546Z,43.00
2023-02-28T04:19:03.200Z,41.10
2023-02-28T04:21:33.250Z,49.70
2023-02-28T04:24:03.033Z,43.40
2023-02-28T04:26:31.968Z,45.60
2023-02-28T04:29:00.929Z,41.30
2023-02-28T04:31:29.372Z,45.10
2023-02-28T04:33:58.314Z,37.70
2023-02-28T04:36:26.981Z,38.20
2023-02-28T04:38:55.365Z,41.50
2023-02-28T04:41:24.254Z,37.00
2023-02-28T04:43:53.041Z,39.90
2023-02-28T04:46:21.510Z,40.10
2023-02-28T04:48:49.930Z,44.30
2023-02-28T04:51:20.000Z,51.20
2023-02-28T04:53:48.742Z,39.50
2023-02-28T04:56:18.385Z,43.20
2023-02-28T04:58:46.512Z,41.60
2023-02-28T05:01:21.173Z,43.50
2023-02-28T05:03:50.291Z,46.10
2023-02-28T05:06:19.409Z,44.80
2023-02-28T05:08:47.768Z,35.60
2023-02-28T05:11:19.123Z,44.90
2023-02-28T05:13:49.681Z,48.70
2023-02-28T05:16:19.107Z,50.30
2023-02-28T05:18:47.722Z,52.30
2023-02-28T05:21:26.146Z,46.60
2023-02-28T05:23:55.489Z,44.80
2023-02-28T05:26:26.929Z,47.60
2023-02-28T05:28:56.047Z,58.70
2023-02-28T05:31:24.938Z,61.40
2023-02-28T05:33:53.505Z,40.30
2023-02-28T05:36:22.214Z,43.90
2023-02-28T05:38:51.061Z,40.20
2023-02-28T05:41:20.617Z,51.30
2023-02-28T05:43:49.010Z,60.20
2023-02-28T05:46:17.222Z,54.20
2023-02-28T05:48:48.280Z,47.90
2023-02-28T05:51:17.196Z,41.70
2023-02-28T05:53:45.797Z,54.10
2023-02-28T05:56:14.013Z,46.20
2023-02-28T05:58:54.560Z,46.90
2023-02-28T06:01:33.801Z,59.80
2023-02-28T06:04:05.662Z,44.00
2023-02-28T06:06:37.113Z,49.20
2023-02-28T06:09:05.751Z,46.40
2023-02-28T06:11:34.245Z,51.30
2023-02-28T06:14:02.995Z,47.50
2023-02-28T06:16:33.860Z,45.20
2023-02-28T06:19:03.771Z,50.80
2023-02-28T06:21:32.525Z,42.50
2023-02-28T06:24:01.449Z,53.80
2023-02-28T06:26:30.052Z,42.40
2023-02-28T06:28:58.367Z,49.90
2023-02-28T06:31:26.463Z,46.00
2023-02-28T06:33:54.724Z,41.50
2023-02-28T06:36:22.878Z,40.60
2023-02-28T06:38:54.947Z,41.80
2023-02-28T06:41:25.271Z,40.70
2023-02-28T06:43:55.123Z,35.90
2023-02-28T06:46:29.831Z,38.00
2023-02-28T06:48:58.026Z,38.90
2023-02-28T06:51:27.603Z,24.80
2023-02-28T06:53:55.779Z,27.80
2023-02-28T06:56:23.872Z,25.30
2023-02-28T06:58:53.132Z,29.60
2023-02-28T07:01:23.327Z,27.40
2023-02-28T07:03:53.162Z,24.20
2023-02-28T07:06:22.971Z,21.40
2023-02-28T07:08:52.333Z,30.00
2023-02-28T07:11:22.817Z,20.60
2023-02-28T07:13:51.427Z,23.60
2023-02-28T07:16:20.190Z,22.80
2023-02-28T07:18:49.694Z,29.40
2023-02-28T07:21:17.791Z,18.00
2023-02-28T07:23:46.200Z,20.10
2023-02-28T07:26:16.060Z,16.20
2023-02-28T07:28:45.515Z,20.80
2023-02-28T07:31:14.927Z,11.70
2023-02-28T07:33:43.678Z,13.50
2023-02-28T07:36:15.551Z,11.90
2023-02-28T07:38:46.374Z,10.00
2023-02-28T07:41:16.847Z,8.90
2023-02-28T07:43:45.134Z,8.90
2023-02-28T07:46:15.922Z,6.90
2023-02-28T07:48:45.047Z,8.20
2023-02-28T07:51:13.213Z,13.00
2023-02-28T07:53:42.623Z,11.00
2023-02-28T07:56:11.317Z,10.00
2023-02-28T07:58:39.454Z,8.20
2023-02-28T08:01:09.593Z,11.30
2023-02-28T08:03:38.178Z,7.80
2023-02-28T08:06:09.085Z,8.00
2023-02-28T08:08:37.285Z,6.20
2023-02-28T08:11:05.687Z,9.30
2023-02-28T08:13:34.540Z,7.90
2023-02-28T08:16:03.623Z,9.90
2023-02-28T08:18:34.597Z,8.70
2023-02-28T08:21:08.635Z,9.20
2023-02-28T08:23:36.957Z,9.70
2023-02-28T08:26:05.498Z,7.50
2023-02-28T08:28:33.647Z,9.60
2023-02-28T08:31:01.777Z,10.60
2023-02-28T08:33:30.187Z,10.00
2023-02-28T08:35:58.443Z,11.50
2023-02-28T08:38:26.519Z,9.10
2023-02-28T08:40:59.764Z,12.00
2023-02-28T08:43:28.024Z,11.20
2023-02-28T08:45:58.649Z,11.40
2023-02-28T08:48:27.809Z,12.50
2023-02-28T08:51:08.638Z,10.10
2023-02-28T08:53:37.767Z,10.80
2023-02-28T08:56:08.883Z,11.80
2023-02-28T08:58:37.191Z,10.30
2023-02-28T09:01:11.427Z,8.10
2023-02-28T09:03:41.277Z,9.90
2023-02-28T09:06:11.083Z,13.60
2023-02-28T09:08:39.678Z,12.00
2023-02-28T09:11:23.168Z,8.00
2023-02-28T09:13:56.329Z,13.20
2023-02-28T09:16:24.503Z,8.90
2023-02-28T09:18:52.590Z,9.40
2023-02-28T09:21:21.106Z,8.70
2023-02-28T09:23:50.896Z,9.30
2023-02-28T09:26:21.210Z,12.40
2023-02-28T09:28:49.395Z,10.30
2023-02-28T09:31:21.521Z,10.50
2023-02-28T09:33:49.783Z,9.60
2023-02-28T09:36:18.474Z,8.70
2023-02-28T09:38:48.699Z,9.50
2023-02-28T09:41:21.950Z,12.40
2023-02-28T09:43:53.658Z,9.80
2023-02-28T09:46:32.108Z,16.40
2023-02-28T09:49:03.395Z,11.20
2023-02-28T09:51:49.250Z,12.10
2023-02-28T09:54:19.678Z,12.90
2023-02-28T09:56:53.076Z,12.10
2023-02-28T09:59:33.381Z,13.00
2023-02-28T10:02:14.184Z,9.60
2023-02-28T10:04:55.284Z,11.40
2023-02-28T10:07:48.319Z,10.30
2023-02-28T10:10:23.797Z,14.40
2023-02-28T10:12:56.265Z,10.80
2023-02-28T10:15:28.780Z,10.30
2023-02-28T10:18:08.921Z,9.10
2023-02-28T10:20:40.849Z,12.50
2023-02-28T10:23:16.988Z,11.60
2023-02-28T10:25:48.518Z,11.80
2023-02-28T10:28:18.673Z,11.40
2023-02-28T10:30:50.546Z,12.00
2023-02-28T10:33:27.448Z,14.10
2023-02-28T10:35:55.924Z,12.00
2023-02-28T10:38:29.724Z,12.90
2023-02-28T10:41:07.604Z,11.50
2023-02-28T10:43:36.793Z,12.10
2023-02-28T10:46:14.434Z,10.30
2023-02-28T10:48:50.347Z,17.70
2023-02-28T10:51:23.138Z,14.60
2023-02-28T10:54:01.013Z,11.30
2023-02-28T10:56:33.789Z,16.90
2023-02-28T10:59:04.361Z,11.20
2023-02-28T11:01:41.263Z,15.40
2023-02-28T11:04:32.788Z,12.50
2023-02-28T11:07:03.711Z,11.00
2023-02-28T11:09:35.633Z,11.30
2023-02-28T11:12:05.466Z,12.90
2023-02-28T11:14:40.821Z,14.50
2023-02-28T11:17:20.397Z,11.70
2023-02-28T11:19:52.197Z,14.90
2023-02-28T11:22:23.809Z,10.60
2023-02-28T11:24:55.353Z,16.30
2023-02-28T11:27:47.486Z,17.30
2023-02-28T11:30:34.879Z,14.10
2023-02-28T11:33:22.364Z,13.70
2023-02-28T11:35:53.295Z,19.20
2023-02-28T11:38:21.394Z,15.50
2023-02-28T11:41:01.381Z,12.30
2023-02-28T11:43:46.877Z,14.40
2023-02-28T11:49:00.196Z,19.40
2023-02-28T11:51:34.320Z,14.30
2023-02-28T11:54:24.682Z,15.90
2023-02-28T11:56:57.958Z,14.70
2023-02-28T11:59:52.817Z,13.40
2023-02-28T12:02:29.069Z,21.90
2023-02-28T12:05:15.456Z,13.30
2023-02-28T12:07:51.757Z,15.30
2023-02-28T12:10:25.007Z,13.40
2023-02-28T12:13:08.760Z,14.30
2023-02-28T12:16:09.927Z,15.60
2023-02-28T12:18:53.552Z,16.80
2023-02-28T12:21:32.261Z,15.30
2023-02-28T12:24:19.811Z,15.00
2023-02-28T12:26:50.546Z,14.70
2023-02-28T12:29:24.267Z,17.10
2023-02-28T12:31:56.565Z,17.40
2023-02-28T12:34:29.576Z,18.40
2023-02-28T12:37:07.746Z,15.10
2023-02-28T12:39:49.839Z,19.00
2023-02-28T12:42:24.898Z,14.70
2023-02-28T12:44:58.961Z,15.10
2023-02-28T12:47:27.161Z,17.30
2023-02-28T12:50:00.917Z,14.90
2023-02-28T12:52:41.489Z,17.60
2023-02-28T12:55:16.100Z,16.70
2023-02-28T12:57:51.320Z,15.10
2023-02-28T13:00:23.983Z,15.70
2023-02-28T13:03:22.429Z,16.10
2023-02-28T13:06:25.074Z,16.20
2023-02-28T13:09:09.909Z,18.20
2023-02-28T13:11:43.206Z,17.80
2023-02-28T13:14:30.882Z,15.80
2023-02-28T13:17:03.151Z,16.10
2023-02-28T13:19:33.122Z,16.50
2023-02-28T13:22:01.840Z,14.60
2023-02-28T13:24:49.071Z,14.10
2023-02-28T13:27:35.627Z,13.90
2023-02-28T13:30:41.640Z,15.20
2023-02-28T13:33:32.833Z,16.50
2023-02-28T13:36:24.007Z,17.40
2023-02-28T13:38:53.808Z,14.50
2023-02-28T13:41:44.119Z,17.00
2023-02-28T13:44:13.729Z,19.30
2023-02-28T13:47:26.556Z,17.90
2023-02-28T13:49:54.623Z,17.10
2023-02-28T13:52:24.876Z,12.70
2023-02-28T13:55:05.409Z,14.70
2023-02-28T13:57:50.236Z,13.40
2023-02-28T14:00:29.539Z,14.60
2023-02-28T14:03:13.197Z,12.10
2023-02-28T14:05:42.065Z,20.70
2023-02-28T14:08:17.330Z,16.10
2023-02-28T14:13:44.518Z,13.70
2023-02-28T14:16:14.253Z,14.30
2023-02-28T14:18:50.027Z,12.40
2023-02-28T14:21:25.903Z,13.50
2023-02-28T14:24:40.467Z,14.20
2023-02-28T14:27:22.538Z,11.30
2023-02-28T14:30:29.230Z,15.60
2023-02-28T14:33:13.271Z,17.30
2023-02-28T14:36:24.289Z,13.10
2023-02-28T14:38:55.712Z,12.30
2023-02-28T14:41:29.386Z,13.70
2023-02-28T14:44:00.123Z,14.90
2023-02-28T14:46:36.234Z,14.60
2023-02-28T14:49:06.495Z,17.10
2023-02-28T14:51:35.654Z,15.00
2023-02-28T14:54:04.650Z,18.50
2023-02-28T14:56:37.572Z,14.80
2023-02-28T14:59:25.667Z,17.80
2023-02-28T15:02:08.792Z,14.20
2023-02-28T15:04:37.853Z,15.60
2023-02-28T15:07:15.956Z,13.70
2023-02-28T15:09:43.949Z,16.60
2023-02-28T15:12:16.622Z,14.70
2023-02-28T15:14:45.705Z,16.30
2023-02-28T15:17:28.511Z,16.30
2023-02-28T15:19:57.955Z,24.60
2023-02-28T15:22:32.471Z,17.70
2023-02-28T15:25:03.131Z,17.10
2023-02-28T15:27:34.405Z,17.40
2023-02-28T15:30:08.430Z,17.70
2023-02-28T15:32:39.970Z,14.60
2023-02-28T15:35:28.198Z,14.40
2023-02-28T15:37:58.279Z,14.90
2023-02-28T15:40:32.162Z,18.00
2023-02-28T15:43:06.281Z,16.70
2023-02-28T15:45:38.824Z,19.30
2023-02-28T15:48:15.375Z,16.60
2023-02-28T15:50:43.889Z,18.10
2023-02-28T15:53:18.758Z,15.60
2023-02-28T15:55:56.342Z,16.20
2023-02-28T15:58:26.318Z,19.50
2023-02-28T16:01:06.655Z,17.80
2023-02-28T16:03:41.998Z,17.70
2023-02-28T16:06:22.538Z,19.20
2023-02-28T16:08:53.500Z,22.90
2023-02-28T16:11:22.978Z,27.40
2023-02-28T16:13:53.166Z,19.20
2023-02-28T16:16:27.013Z,22.50
2023-02-28T16:18:56.172Z,18.70
2023-02-28T16:21:28.270Z,19.40
2023-02-28T16:23:56.978Z,20.40
2023-02-28T16:26:27.997Z,21.60
2023-02-28T16:28:56.218Z,20.30
2023-02-28T16:31:25.132Z,16.50
2023-02-28T16:33:53.247Z,19.30
2023-02-28T16:36:25.693Z,17.10
2023-02-28T16:38:57.467Z,23.10
2023-02-28T16:41:29.645Z,25.10
2023-02-28T16:44:01.459Z,20.30
2023-02-28T16:46:35.849Z,24.50
2023-02-28T16:49:03.966Z,17.10
2023-02-28T16:51:34.318Z,20.50
2023-02-28T16:54:07.694Z,20.30
2023-02-28T16:56:36.679Z,23.70
2023-02-28T16:59:04.925Z,21.90
2023-02-28T17:01:33.748Z,27.50
2023-02-28T17:04:02.214Z,32.00
2023-02-28T17:06:31.487Z,22.20
2023-02-28T17:09:00.227Z,25.20
2023-02-28T17:11:28.625Z,25.60
2023-02-28T17:13:57.403Z,25.60
2023-02-28T17:16:29.209Z,32.50
2023-02-28T17:19:00.432Z,25.50
2023-02-28T17:21:29.567Z,25.40
2023-02-28T17:23:57.884Z,21.80
2023-02-28T17:26:28.508Z,26.00
2023-02-28T17:28:58.159Z,20.20
2023-02-28T17:31:27.804Z,21.20
2023-02-28T17:33:55.982Z,18.40
2023-02-28T17:36:28.608Z,24.60
2023-02-28T17:38:58.866Z,30.50
2023-02-28T17:41:27.292Z,24.20
2023-02-28T17:43:56.770Z,20.30
2023-02-28T17:46:26.795Z,20.70
2023-02-28T17:48:55.317Z,26.30
2023-02-28T17:51:25.079Z,25.40
2023-02-28T17:53:53.188Z,27.70
2023-02-28T17:56:24.076Z,29.80
2023-02-28T17:58:53.853Z,26.00
2023-02-28T18:01:24.728Z,25.10
2023-02-28T18:03:55.913Z,26.90
2023-02-28T18:06:27.866Z,29.10
2023-02-28T18:08:56.174Z,32.80
2023-02-28T18:11:26.361Z,29.00
2023-02-28T18:13:56.138Z,26.70
2023-02-28T18:16:24.205Z,35.40
2023-02-28T18:18:52.704Z,26.90
2023-02-28T18:21:21.056Z,28.60
2023-02-28T18:23:49.538Z,34.50
2023-02-28T18:26:19.309Z,35.20
2023-02-28T18:28:48.190Z,32.00
2023-02-28T18:31:24.368Z,29.90
2023-02-28T18:33:52.951Z,24.70
2023-02-28T18:36:22.025Z,34.00
2023-02-28T18:38:50.358Z,30.30
2023-02-28T18:41:20.089Z,30.50
2023-02-28T18:43:50.504Z,30.60
2023-02-28T18:46:20.897Z,27.10
2023-02-28T18:48:49.196Z,29.20
2023-02-28T18:51:19.626Z,27.80
2023-02-28T18:53:48.350Z,26.20
2023-02-28T18:56:18.457Z,28.50
2023-02-28T18:58:46.852Z,31.00
2023-02-28T19:01:17.487Z,26.90
2023-02-28T19:03:46.226Z,28.40
2023-02-28T19:06:15.317Z,37.90
2023-02-28T19:08:43.394Z,47.40
2023-02-28T19:11:14.974Z,45.80
2023-02-28T19:13:43.763Z,44.20
2023-02-28T19:16:13.261Z,42.70
2023-02-28T19:18:42.052Z,41.00
2023-02-28T19:21:11.718Z,43.80
2023-02-28T19:23:41.689Z,50.80
2023-02-28T19:26:11.563Z,47.70
2023-02-28T19:28:39.846Z,45.20
2023-02-28T19:31:13.860Z,45.50
2023-02-28T19:33:42.376Z,37.00
2023-02-28T19:36:12.294Z,44.80
2023-02-28T19:38:40.950Z,42.40
2023-02-28T19:41:33.572Z,49.60
2023-02-28T19:44:01.601Z,53.30
2023-02-28T19:46:29.676Z,43.10
2023-02-28T19:48:57.958Z,42.10
2023-02-28T19:51:27.191Z,41.90
2023-02-28T19:53:55.369Z,48.40
2023-02-28T19:56:24.060Z,42.30
2023-02-28T19:58:52.156Z,42.90
2023-02-28T20:01:20.730Z,43.00
2023-02-28T20:03:51.133Z,38.70
2023-02-28T20:06:19.263Z,67.40
2023-02-28T20:08:47.418Z,74.40
2023-02-28T20:11:16.707Z,51.90
2023-02-28T20:13:45.517Z,54.90
2023-02-28T20:16:15.240Z,41.50
2023-02-28T20:18:50.753Z,43.80
2023-02-28T20:23:49.071Z,39.90
2023-02-28T20:29:28.144Z,42.80
2023-02-28T20:32:01.844Z,48.90
2023-02-28T20:34:30.564Z,42.20
2023-02-28T20:36:59.135Z,48.30
2023-02-28T20:39:28.430Z,43.60
2023-02-28T20:41:57.077Z,44.10
2023-02-28T20:44:25.493Z,47.50
2023-02-28T20:46:54.039Z,47.90
2023-02-28T20:49:23.420Z,48.90
2023-02-28T20:51:51.862Z,44.60
2023-02-28T20:54:20.163Z,42.80
2023-02-28T20:56:48.342Z,41.30
2023-02-28T20:59:17.250Z,45.70
2023-02-28T21:01:45.640Z,43.70
2023-02-28T21:04:14.081Z,45.20
2023-02-28T21:06:45.774Z,43.80
2023-02-28T21:09:15.658Z,43.60
2023-02-28T21:11:44.109Z,47.90
2023-02-28T21:14:17.454Z,50.10
2023-02-28T21:16:46.300Z,35.70
2023-02-28T21:19:14.744Z,49.10
2023-02-28T21:21:44.337Z,49.60
2023-02-28T21:24:13.847Z,50.50
2023-02-28T21:26:44.302Z,46.90
2023-02-28T21:29:13.569Z,47.00
2023-02-28T21:31:41.809Z,50.80
2023-02-28T21:34:12.573Z,47.80
2023-02-28T21:36:45.076Z,54.70
2023-02-28T21:39:15.693Z,59.00
2023-02-28T21:41:43.982Z,47.60
2023-02-28T21:44:17.846Z,62.00
2023-02-28T21:47:08.414Z,54.70
2023-02-28T21:49:38.505Z,52.40
2023-02-28T21:52:06.971Z,52.00
2023-02-28T21:54:35.352Z,57.20
2023-02-28T21:57:03.708Z,57.60
2023-02-28T21:59:32.135Z,59.10
2023-02-28T22:02:00.633Z,61.00
2023-02-28T22:04:28.785Z,52.00
2023-02-28T22:06:57.965Z,53.80
2023-02-28T22:09:26.371Z,60.30
2023-02-28T22:11:54.687Z,57.60
2023-02-28T22:14:23.193Z,65.90
2023-02-28T22:16:54.163Z,52.80
2023-02-28T22:19:23.649Z,56.50
2023-02-28T22:21:53.468Z,54.40
2023-02-28T22:24:23.725Z,62.70
2023-02-28T22:26:52.331Z,61.40
2023-02-28T22:29:20.472Z,65.50
2023-02-28T22:31:48.494Z,70.30
2023-02-28T22:34:16.842Z,78.50
2023-02-28T22:36:44.920Z,67.00
2023-02-28T22:39:13.138Z,64.60
2023-02-28T22:41:41.237Z,58.20
2023-02-28T22:44:10.582Z,65.80
2023-02-28T22:46:38.853Z,69.90
2023-02-28T22:49:07.069Z,73.80
2023-02-28T22:51:36.049Z,85.00
2023-02-28T22:54:04.683Z,75.30
2023-02-28T22:56:35.688Z,73.30
2023-02-28T22:59:03.837Z,76.50
2023-02-28T23:01:33.122Z,74.10
2023-02-28T23:04:02.157Z,77.00
2023-02-28T23:06:33.365Z,83.70
2023-02-28T23:09:05.089Z,70.30
2023-02-28T23:11:36.014Z,79.20
2023-02-28T23:14:04.393Z,82.60
2023-02-28T23:16:35.436Z,76.20
2023-02-28T23:19:06.189Z,73.00
2023-02-28T23:21:34.951Z,75.10
2023-02-28T23:24:04.290Z,79.40
2023-02-28T23:26:33.117Z,72.90
2023-02-28T23:29:01.338Z,71.70
2023-02-28T23:31:29.418Z,60.70
2023-02-28T23:33:57.678Z,71.40
2023-02-28T23:36:26.028Z,86.40
2023-02-28T23:38:54.171Z,78.10
2023-02-28T23:41:23.585Z,74.30
2023-02-28T23:43:54.072Z,75.20
2023-02-28T23:46:22.539Z,81.20
2023-02-28T23:48:50.653Z,80.20
2023-02-28T23:51:21.222Z,70.80
2023-02-28T23:54:05.325Z,73.50
2023-02-28T23:56:41.377Z,85.80
2023-02-28T23:59:10.693Z,71.20
